Observations for ISLAY PORT ELLEN, United Kingdom (EGPI)

EGPI 190320Z AUTO 19014G24KT 160V220 9999 NCD 12/07 Q0997   
EGPI 190250Z AUTO 20015KT 160V230 9999 NCD 12/08 Q0997  
EGPI 190220Z AUTO 21021KT 180V250 9999 FEW028/// 12/08 Q0997
EGPI 190150Z AUTO 22020G30KT 190V250 9999 FEW024/// 12/09 Q0998 
EGPI 190120Z AUTO 22022KT 190V250 9999 SCT027/// SCT042/// 12/08 Q0997  
EGPI 190050Z AUTO 22022KT 9999 BKN026/// SCT046/// 12/09 Q0997  
EGPI 190020Z AUTO 22026KT 190V250 9999 FEW028/// BKN032/// 12/08 Q0997  
EGPI 182350Z AUTO 22027G38KT 9999 FEW037/// 12/08 Q0997 
EGPI 182320Z AUTO 22032G44KT 190V250 9999 NCD 12/08 Q0996 RERA  
EGPI 182250Z AUTO 21028G38KT 180V240 9999 NCD 12/08 Q0995 RERA  
EGPI 182220Z AUTO 18016KT 140V220 9999 FEW042/// 13/09 Q0995 RERA   
EGPI 182150Z AUTO 19018KT 150V220 9999 NCD 13/09 Q0995 RERA 
EGPI 182120Z AUTO 19018KT 150V230 9999 -RA NCD 13/09 Q0996  
EGPI 182050Z AUTO 18013KT 150V210 9999 NCD 13/09 Q0996  
EGPI 182020Z AUTO 18014KT 130V210 9999 NCD 13/10 Q0996  
EGPI 181950Z AUTO 20015KT 160V230 9999 NCD 13/10 Q0996 RERA 
EGPI 181920Z AUTO 21015KT 180V240 9999 BKN044/// 13/11 Q0996 RERA   
EGPI 181850Z AUTO 22019G30KT 9999 FEW042/// 14/11 Q0996 RERA
EGPI 181820Z AUTO 21012KT 170V250 9999 NCD 14/12 Q0996 RERA 
EGPI 181750Z 23020KT 180V250 9999 RA BKN038CB 13/10 Q0995   
EGPI 181720Z 23013G27KT 190V270 9999 RA FEW045CB 14/12 Q0995
EGPI 181650Z 17012KT CAVOK 16/12 Q0995  
EGPI 181620Z 18014KT 150V210 CAVOK 17/13 Q0995  
EGPI 181550Z 17011KT 130V200 9999 SCT032 SCT042 17/13 Q0995 
EGPI 181520Z AUTO 17007KT 140V200 9999 BKN032/// 15/13 Q0996
EGPI 181450Z 20011KT 170V230 9999 BKN031 15/12 Q0996
EGPI 181420Z 23007KT 190V250 9999 SCT032 14/13 Q0996
EGPI 181350Z 22006KT 150V270 9999 FEW003 SCT016 15/14 Q0995 
EGPI 181320Z 25008KT 200V280 9999 FEW003 14/14 Q0995
EGPI 181250Z 22010KT 180V240 9999 VCSH SCT006 BKN016 14/13 Q0996
EGPI 181220Z AUTO 24011KT 9999 SCT007/// BKN016/// 14/13 Q0995  
EGPI 181150Z 25011KT 220V280 9999 VCSH SCT006 SCT024 14/14 Q0995
EGPI 181120Z 25010KT 9999 VCSH SCT008 BKN025 14/14 Q0994
EGPI 181050Z 26011KT 220V280 9999 VCSH SCT003 SCT011 BKN019 14/14 Q0994 
EGPI 181020Z 25010KT 9999 VCSH BKN003 SCT013 BKN018 14/14 Q0993 
EGPI 180950Z 27010KT 9999 VCSH SCT004 BKN012 14/14 Q0993
EGPI 180920Z 28009KT 3000 DZRA BR OVC001 14/14 Q0993
EGPI 180850Z 22005KT 160V260 1000 DZRA BR OVC001 15/15 Q0992
EGPI 180820Z 17007KT 140V200 8000 -DZRA OVC002 15/14 Q0992  
EGPI 180750Z 15007KT 110V200 5000 -DZRA OVC002 14/14 Q0992  
EGPI 180720Z 15007KT 120V190 4800 DZRA BKN002 14/14 Q0992   
EGPI 180650Z AUTO 15007KT 100V190 2200 BR OVC002/// 14/14 Q0992 RERA
EGPI 180620Z AUTO VRB03KT 5000 -DZ OVC004/// 14/14 Q0992
EGPI 180550Z AUTO 01006KT 330V050 3300 -DZ OVC004/// 13/13 Q0992
EGPI 180520Z AUTO 36007KT 2500 -RADZ OVC004/// 13/13 Q0992  
EGPI 180450Z AUTO 01006KT 340V050 3200 BR BKN003/// BKN009/// 14/14 Q0992 RERA  
EGPI 180420Z AUTO 35007KT 310V030 3300 BR BKN003/// BKN009/// 13/13 Q0993 RERA  
EGPI 180350Z AUTO 01005KT 340V040 3300 BR OVC006/// 14/14 Q0993 RERA
EGPI 180320Z AUTO 03005KT 8000 -DZ OVC009/// 14/14 Q0993
EGPI 180250Z AUTO VRB03KT 9999 -RA FEW006/// OVC009/// 14/14 Q0994